sensor_id;sensor_type;location;lat;lon;timestamp;pressure;altitude;pressure_sealevel;temperature;humidity
28267;BME280;15525;45.568;5.448;2022-08-19T00:01:09;97819.97;;;22.88;61.09
28267;BME280;15525;45.568;5.448;2022-08-19T00:03:35;97822.53;;;22.96;60.88
28267;BME280;15525;45.568;5.448;2022-08-19T00:06:00;97823.78;;;22.99;60.81
28267;BME280;15525;45.568;5.448;2022-08-19T00:08:26;97819.00;;;22.96;60.67
28267;BME280;15525;45.568;5.448;2022-08-19T00:10:51;97834.84;;;23.06;60.71
28267;BME280;15525;45.568;5.448;2022-08-19T00:13:17;97812.66;;;22.92;60.83
28267;BME280;15525;45.568;5.448;2022-08-19T00:15:43;97811.25;;;22.82;61.17
28267;BME280;15525;45.568;5.448;2022-08-19T00:18:10;97832.66;;;22.96;60.84
28267;BME280;15525;45.568;5.448;2022-08-19T00:20:35;97813.94;;;23.13;60.59
28267;BME280;15525;45.568;5.448;2022-08-19T00:23:05;97818.91;;;23.08;60.66
28267;BME280;15525;45.568;5.448;2022-08-19T00:25:31;97816.28;;;22.80;61.51
28267;BME280;15525;45.568;5.448;2022-08-19T00:27:57;97822.63;;;22.69;61.95
28267;BME280;15525;45.568;5.448;2022-08-19T00:30:22;97826.34;;;22.76;61.67
28267;BME280;15525;45.568;5.448;2022-08-19T00:32:47;97822.22;;;22.67;62.21
28267;BME280;15525;45.568;5.448;2022-08-19T00:35:13;97826.06;;;22.66;62.48
28267;BME280;15525;45.568;5.448;2022-08-19T00:37:39;97827.47;;;22.60;62.55
28267;BME280;15525;45.568;5.448;2022-08-19T00:40:09;97825.63;;;22.64;62.31
28267;BME280;15525;45.568;5.448;2022-08-19T00:42:35;97815.16;;;22.66;62.29
28267;BME280;15525;45.568;5.448;2022-08-19T00:45:02;97830.28;;;22.63;62.39
28267;BME280;15525;45.568;5.448;2022-08-19T00:47:27;97815.59;;;22.52;62.99
28267;BME280;15525;45.568;5.448;2022-08-19T00:49:56;97815.41;;;22.61;62.70
28267;BME280;15525;45.568;5.448;2022-08-19T00:52:29;97802.91;;;22.60;62.65
28267;BME280;15525;45.568;5.448;2022-08-19T00:54:56;97810.75;;;22.77;62.06
28267;BME280;15525;45.568;5.448;2022-08-19T00:57:27;97801.59;;;22.85;61.79
28267;BME280;15525;45.568;5.448;2022-08-19T00:59:55;97815.69;;;22.87;61.88
28267;BME280;15525;45.568;5.448;2022-08-19T01:02:22;97811.53;;;22.77;62.18
28267;BME280;15525;45.568;5.448;2022-08-19T01:04:48;97814.63;;;22.60;62.64
28267;BME280;15525;45.568;5.448;2022-08-19T01:07:13;97812.59;;;22.73;62.39
28267;BME280;15525;45.568;5.448;2022-08-19T01:09:39;97810.75;;;22.77;62.26
28267;BME280;15525;45.568;5.448;2022-08-19T01:12:04;97818.94;;;22.77;62.56
28267;BME280;15525;45.568;5.448;2022-08-19T01:14:30;97819.03;;;22.65;62.92
28267;BME280;15525;45.568;5.448;2022-08-19T01:16:56;97808.25;;;22.41;63.65
28267;BME280;15525;45.568;5.448;2022-08-19T01:19:36;97802.47;;;22.42;63.84
28267;BME280;15525;45.568;5.448;2022-08-19T01:22:09;97811.91;;;22.60;63.40
28267;BME280;15525;45.568;5.448;2022-08-19T01:24:36;97802.13;;;22.44;63.33
28267;BME280;15525;45.568;5.448;2022-08-19T01:27:04;97814.91;;;22.55;63.59
28267;BME280;15525;45.568;5.448;2022-08-19T01:29:30;97819.69;;;22.31;64.42
28267;BME280;15525;45.568;5.448;2022-08-19T01:31:55;97816.25;;;22.34;63.92
28267;BME280;15525;45.568;5.448;2022-08-19T01:34:21;97825.94;;;22.31;64.39
28267;BME280;15525;45.568;5.448;2022-08-19T01:36:47;97811.25;;;22.36;64.21
28267;BME280;15525;45.568;5.448;2022-08-19T01:39:24;97823.06;;;22.71;63.56
28267;BME280;15525;45.568;5.448;2022-08-19T01:41:51;97817.78;;;22.47;63.86
28267;BME280;15525;45.568;5.448;2022-08-19T01:44:19;97815.00;;;22.31;64.56
28267;BME280;15525;45.568;5.448;2022-08-19T01:46:50;97815.25;;;22.54;63.79
28267;BME280;15525;45.568;5.448;2022-08-19T01:49:18;97820.53;;;22.47;64.10
28267;BME280;15525;45.568;5.448;2022-08-19T01:51:44;97800.66;;;22.46;64.17
28267;BME280;15525;45.568;5.448;2022-08-19T01:54:11;97810.28;;;22.44;64.20
28267;BME280;15525;45.568;5.448;2022-08-19T01:56:37;97809.41;;;22.40;64.37
28267;BME280;15525;45.568;5.448;2022-08-19T01:59:08;97802.13;;;22.44;64.26
28267;BME280;15525;45.568;5.448;2022-08-19T02:01:35;97822.59;;;22.38;64.40
28267;BME280;15525;45.568;5.448;2022-08-19T02:04:01;97812.22;;;22.43;64.10
28267;BME280;15525;45.568;5.448;2022-08-19T02:06:27;97832.34;;;22.39;64.43
28267;BME280;15525;45.568;5.448;2022-08-19T02:08:53;97824.25;;;22.27;64.75
28267;BME280;15525;45.568;5.448;2022-08-19T02:11:24;97823.06;;;22.40;64.50
28267;BME280;15525;45.568;5.448;2022-08-19T02:13:52;97824.97;;;22.39;64.25
28267;BME280;15525;45.568;5.448;2022-08-19T02:16:17;97826.53;;;22.25;64.39
28267;BME280;15525;45.568;5.448;2022-08-19T02:18:43;97818.81;;;22.27;64.16
28267;BME280;15525;45.568;5.448;2022-08-19T02:21:09;97837.38;;;22.37;64.38
28267;BME280;15525;45.568;5.448;2022-08-19T02:23:36;97828.13;;;22.26;64.78
28267;BME280;15525;45.568;5.448;2022-08-19T02:26:02;97844.16;;;22.43;64.01
28267;BME280;15525;45.568;5.448;2022-08-19T02:28:27;97829.41;;;22.44;63.84
28267;BME280;15525;45.568;5.448;2022-08-19T02:30:53;97834.56;;;22.33;64.22
28267;BME280;15525;45.568;5.448;2022-08-19T02:33:18;97823.97;;;22.16;64.54
28267;BME280;15525;45.568;5.448;2022-08-19T02:35:45;97828.38;;;22.05;65.15
28267;BME280;15525;45.568;5.448;2022-08-19T02:38:11;97838.59;;;22.24;64.17
28267;BME280;15525;45.568;5.448;2022-08-19T02:41:04;97841.25;;;22.36;64.11
28267;BME280;15525;45.568;5.448;2022-08-19T02:43:31;97850.09;;;22.17;64.39
28267;BME280;15525;45.568;5.448;2022-08-19T02:45:57;97849.16;;;22.25;64.03
28267;BME280;15525;45.568;5.448;2022-08-19T02:48:25;97844.59;;;22.29;63.96
28267;BME280;15525;45.568;5.448;2022-08-19T02:50:52;97862.78;;;22.53;63.54
28267;BME280;15525;45.568;5.448;2022-08-19T02:53:23;97845.44;;;22.61;63.10
28267;BME280;15525;45.568;5.448;2022-08-19T02:55:49;97852.25;;;22.67;62.89
28267;BME280;15525;45.568;5.448;2022-08-19T02:58:16;97861.66;;;22.69;63.01
28267;BME280;15525;45.568;5.448;2022-08-19T03:00:50;97859.59;;;22.51;63.67
28267;BME280;15525;45.568;5.448;2022-08-19T03:03:16;97858.19;;;22.57;63.19
28267;BME280;15525;45.568;5.448;2022-08-19T03:05:41;97853.81;;;22.68;62.77
28267;BME280;15525;45.568;5.448;2022-08-19T03:08:08;97856.34;;;22.61;62.90
28267;BME280;15525;45.568;5.448;2022-08-19T03:10:46;97860.75;;;22.50;63.25
28267;BME280;15525;45.568;5.448;2022-08-19T03:13:14;97861.91;;;22.49;63.62
28267;BME280;15525;45.568;5.448;2022-08-19T03:15:45;97857.88;;;22.31;63.93
28267;BME280;15525;45.568;5.448;2022-08-19T03:18:11;97853.06;;;22.40;63.46
28267;BME280;15525;45.568;5.448;2022-08-19T03:20:41;97869.28;;;22.48;63.53
28267;BME280;15525;45.568;5.448;2022-08-19T03:23:07;97873.25;;;22.51;63.34
28267;BME280;15525;45.568;5.448;2022-08-19T03:25:37;97880.38;;;22.71;63.22
28267;BME280;15525;45.568;5.448;2022-08-19T03:28:03;97871.84;;;22.72;62.91
28267;BME280;15525;45.568;5.448;2022-08-19T03:30:28;97858.25;;;22.45;63.52
28267;BME280;15525;45.568;5.448;2022-08-19T03:32:53;97863.66;;;22.57;63.28
28267;BME280;15525;45.568;5.448;2022-08-19T03:35:19;97861.69;;;22.42;63.80
28267;BME280;15525;45.568;5.448;2022-08-19T03:37:45;97852.13;;;22.20;64.54
28267;BME280;15525;45.568;5.448;2022-08-19T03:40:10;97870.97;;;22.25;64.35
28267;BME280;15525;45.568;5.448;2022-08-19T03:42:36;97867.03;;;22.38;64.00
28267;BME280;15525;45.568;5.448;2022-08-19T03:45:02;97881.44;;;22.51;63.50
28267;BME280;15525;45.568;5.448;2022-08-19T03:47:28;97878.03;;;22.42;63.79
28267;BME280;15525;45.568;5.448;2022-08-19T03:49:53;97876.38;;;22.37;64.05
28267;BME280;15525;45.568;5.448;2022-08-19T03:52:18;97877.41;;;22.33;64.01
28267;BME280;15525;45.568;5.448;2022-08-19T03:54:44;97885.41;;;22.26;64.57
28267;BME280;15525;45.568;5.448;2022-08-19T03:57:10;97879.34;;;22.32;64.18
28267;BME280;15525;45.568;5.448;2022-08-19T03:59:37;97893.63;;;22.41;63.90
28267;BME280;15525;45.568;5.448;2022-08-19T04:02:09;97887.56;;;22.48;64.03
28267;BME280;15525;45.568;5.448;2022-08-19T04:04:37;97903.81;;;22.56;63.53
28267;BME280;15525;45.568;5.448;2022-08-19T04:07:02;97903.88;;;22.60;63.45
28267;BME280;15525;45.568;5.448;2022-08-19T04:09:28;97911.81;;;22.65;63.45
28267;BME280;15525;45.568;5.448;2022-08-19T04:11:55;97917.97;;;22.62;63.60
28267;BME280;15525;45.568;5.448;2022-08-19T04:14:24;97917.19;;;22.61;63.51
28267;BME280;15525;45.568;5.448;2022-08-19T04:16:51;97917.78;;;22.55;63.78
28267;BME280;15525;45.568;5.448;2022-08-19T04:19:17;97913.38;;;22.50;63.69
28267;BME280;15525;45.568;5.448;2022-08-19T04:21:45;97908.47;;;22.56;63.66
28267;BME280;15525;45.568;5.448;2022-08-19T04:24:11;97909.72;;;22.74;63.57
28267;BME280;15525;45.568;5.448;2022-08-19T04:26:37;97912.91;;;22.76;63.28
28267;BME280;15525;45.568;5.448;2022-08-19T04:29:08;97922.75;;;22.80;63.39
28267;BME280;15525;45.568;5.448;2022-08-19T04:31:34;97926.38;;;22.84;63.27
28267;BME280;15525;45.568;5.448;2022-08-19T04:34:02;97936.66;;;22.75;63.53
28267;BME280;15525;45.568;5.448;2022-08-19T04:36:35;97918.38;;;22.76;63.53
28267;BME280;15525;45.568;5.448;2022-08-19T04:39:13;97927.75;;;22.63;63.80
28267;BME280;15525;45.568;5.448;2022-08-19T04:41:38;97923.88;;;22.64;63.63
28267;BME280;15525;45.568;5.448;2022-08-19T04:44:22;97941.03;;;22.49;63.92
28267;BME280;15525;45.568;5.448;2022-08-19T04:46:49;97936.47;;;22.41;64.36
28267;BME280;15525;45.568;5.448;2022-08-19T04:49:17;97943.19;;;22.43;64.26
28267;BME280;15525;45.568;5.448;2022-08-19T04:51:44;97931.03;;;22.41;64.22
28267;BME280;15525;45.568;5.448;2022-08-19T04:54:11;97941.03;;;22.49;64.04
28267;BME280;15525;45.568;5.448;2022-08-19T04:56:36;97939.03;;;22.61;63.76
28267;BME280;15525;45.568;5.448;2022-08-19T04:59:03;97947.81;;;22.43;64.22
28267;BME280;15525;45.568;5.448;2022-08-19T05:01:31;97935.34;;;22.42;64.00
28267;BME280;15525;45.568;5.448;2022-08-19T05:03:59;97945.78;;;22.52;63.86
28267;BME280;15525;45.568;5.448;2022-08-19T05:06:26;97938.94;;;22.58;63.56
28267;BME280;15525;45.568;5.448;2022-08-19T05:08:52;97947.31;;;22.65;63.37
28267;BME280;15525;45.568;5.448;2022-08-19T05:11:26;97947.84;;;22.70;63.55
28267;BME280;15525;45.568;5.448;2022-08-19T05:13:52;97959.81;;;22.81;63.05
28267;BME280;15525;45.568;5.448;2022-08-19T05:16:21;97965.53;;;22.76;63.31
28267;BME280;15525;45.568;5.448;2022-08-19T05:18:47;97970.78;;;22.54;63.79
28267;BME280;15525;45.568;5.448;2022-08-19T05:21:31;97971.63;;;22.30;64.40
28267;BME280;15525;45.568;5.448;2022-08-19T05:24:17;97966.91;;;22.55;63.63
28267;BME280;15525;45.568;5.448;2022-08-19T05:26:47;97970.06;;;22.29;64.37
28267;BME280;15525;45.568;5.448;2022-08-19T05:29:19;97979.56;;;22.35;64.58
28267;BME280;15525;45.568;5.448;2022-08-19T05:31:46;97954.19;;;22.19;64.34
28267;BME280;15525;45.568;5.448;2022-08-19T05:34:15;97976.59;;;22.40;64.17
28267;BME280;15525;45.568;5.448;2022-08-19T05:36:42;97988.91;;;22.46;64.28
28267;BME280;15525;45.568;5.448;2022-08-19T05:39:12;97989.34;;;22.36;64.58
28267;BME280;15525;45.568;5.448;2022-08-19T05:41:46;97979.09;;;22.45;64.46
28267;BME280;15525;45.568;5.448;2022-08-19T05:44:14;97984.00;;;22.40;64.33
28267;BME280;15525;45.568;5.448;2022-08-19T05:46:43;97980.13;;;22.53;63.92
28267;BME280;15525;45.568;5.448;2022-08-19T05:49:08;97987.84;;;22.51;63.79
28267;BME280;15525;45.568;5.448;2022-08-19T05:51:35;97993.94;;;22.60;63.96
28267;BME280;15525;45.568;5.448;2022-08-19T05:54:03;97987.50;;;22.52;64.11
28267;BME280;15525;45.568;5.448;2022-08-19T05:56:29;97987.22;;;22.69;63.75
28267;BME280;15525;45.568;5.448;2022-08-19T05:58:56;97976.97;;;22.66;63.36
28267;BME280;15525;45.568;5.448;2022-08-19T06:01:22;97980.84;;;22.65;63.47
28267;BME280;15525;45.568;5.448;2022-08-19T06:03:47;97993.50;;;22.58;63.84
28267;BME280;15525;45.568;5.448;2022-08-19T06:06:14;98000.34;;;22.52;64.00
28267;BME280;15525;45.568;5.448;2022-08-19T06:08:41;97994.00;;;22.48;64.36
28267;BME280;15525;45.568;5.448;2022-08-19T06:11:23;98011.16;;;22.48;64.66
28267;BME280;15525;45.568;5.448;2022-08-19T06:13:53;98004.00;;;22.44;64.36
28267;BME280;15525;45.568;5.448;2022-08-19T06:16:19;98003.31;;;22.47;64.37
28267;BME280;15525;45.568;5.448;2022-08-19T06:18:52;98007.81;;;22.67;63.93
28267;BME280;15525;45.568;5.448;2022-08-19T06:21:19;97992.50;;;22.78;63.37
28267;BME280;15525;45.568;5.448;2022-08-19T06:23:46;98011.41;;;22.71;63.89
28267;BME280;15525;45.568;5.448;2022-08-19T06:26:12;98014.84;;;22.68;63.95
28267;BME280;15525;45.568;5.448;2022-08-19T06:28:38;98026.78;;;22.63;64.33
28267;BME280;15525;45.568;5.448;2022-08-19T06:31:08;98018.22;;;22.77;63.61
28267;BME280;15525;45.568;5.448;2022-08-19T06:33:34;98025.47;;;22.85;63.41
28267;BME280;15525;45.568;5.448;2022-08-19T06:35:59;98021.75;;;22.93;63.51
28267;BME280;15525;45.568;5.448;2022-08-19T06:38:24;98038.00;;;22.74;64.22
28267;BME280;15525;45.568;5.448;2022-08-19T06:40:50;98017.34;;;22.88;63.68
28267;BME280;15525;45.568;5.448;2022-08-19T06:43:15;98025.56;;;22.88;63.87
28267;BME280;15525;45.568;5.448;2022-08-19T06:45:41;98026.06;;;22.78;63.96
28267;BME280;15525;45.568;5.448;2022-08-19T06:48:07;98004.13;;;22.90;63.60
28267;BME280;15525;45.568;5.448;2022-08-19T06:50:32;98024.84;;;23.19;63.19
28267;BME280;15525;45.568;5.448;2022-08-19T06:52:58;98034.09;;;23.30;63.06
28267;BME280;15525;45.568;5.448;2022-08-19T06:55:23;98043.28;;;23.37;62.79
28267;BME280;15525;45.568;5.448;2022-08-19T06:57:48;98046.44;;;23.24;63.23
28267;BME280;15525;45.568;5.448;2022-08-19T07:00:15;98038.38;;;23.15;63.56
28267;BME280;15525;45.568;5.448;2022-08-19T07:02:42;98047.50;;;23.19;63.30
28267;BME280;15525;45.568;5.448;2022-08-19T07:05:08;98040.44;;;23.34;63.16
28267;BME280;15525;45.568;5.448;2022-08-19T07:07:33;98045.47;;;23.47;62.80
28267;BME280;15525;45.568;5.448;2022-08-19T07:09:59;98045.38;;;23.44;62.85
28267;BME280;15525;45.568;5.448;2022-08-19T07:12:27;98047.81;;;23.18;63.40
28267;BME280;15525;45.568;5.448;2022-08-19T07:14:53;98055.72;;;23.07;63.80
28267;BME280;15525;45.568;5.448;2022-08-19T07:17:18;98045.75;;;23.15;63.29
28267;BME280;15525;45.568;5.448;2022-08-19T07:19:45;98064.34;;;23.37;63.09
28267;BME280;15525;45.568;5.448;2022-08-19T07:22:10;98052.53;;;23.33;63.08
28267;BME280;15525;45.568;5.448;2022-08-19T07:24:37;98070.78;;;23.60;62.59
28267;BME280;15525;45.568;5.448;2022-08-19T07:27:05;98080.28;;;23.66;62.45
28267;BME280;15525;45.568;5.448;2022-08-19T07:29:32;98092.47;;;23.68;62.57
28267;BME280;15525;45.568;5.448;2022-08-19T07:32:00;98082.41;;;23.72;62.59
28267;BME280;15525;45.568;5.448;2022-08-19T07:34:26;98089.38;;;23.85;62.31
28267;BME280;15525;45.568;5.448;2022-08-19T07:36:53;98087.09;;;23.72;62.61
28267;BME280;15525;45.568;5.448;2022-08-19T07:39:23;98090.16;;;23.39;63.62
28267;BME280;15525;45.568;5.448;2022-08-19T07:41:49;98084.38;;;23.56;63.05
28267;BME280;15525;45.568;5.448;2022-08-19T07:44:16;98089.47;;;23.58;62.94
28267;BME280;15525;45.568;5.448;2022-08-19T07:46:46;98090.97;;;23.71;62.62
28267;BME280;15525;45.568;5.448;2022-08-19T07:49:13;98091.69;;;23.68;62.54
28267;BME280;15525;45.568;5.448;2022-08-19T07:51:49;98087.50;;;23.43;63.22
28267;BME280;15525;45.568;5.448;2022-08-19T07:54:19;98092.31;;;23.61;62.93
28267;BME280;15525;45.568;5.448;2022-08-19T07:56:44;98099.34;;;23.62;62.89
28267;BME280;15525;45.568;5.448;2022-08-19T07:59:10;98093.28;;;23.69;62.76
28267;BME280;15525;45.568;5.448;2022-08-19T08:01:36;98107.22;;;23.79;62.49
28267;BME280;15525;45.568;5.448;2022-08-19T08:04:02;98098.56;;;23.93;62.28
28267;BME280;15525;45.568;5.448;2022-08-19T08:06:46;98094.00;;;23.97;61.99
28267;BME280;15525;45.568;5.448;2022-08-19T08:09:35;98106.00;;;23.92;62.03
28267;BME280;15525;45.568;5.448;2022-08-19T08:12:28;98102.09;;;24.09;62.00
28267;BME280;15525;45.568;5.448;2022-08-19T08:14:58;98111.53;;;24.27;61.41
28267;BME280;15525;45.568;5.448;2022-08-19T08:17:26;98118.19;;;23.95;62.05
28267;BME280;15525;45.568;5.448;2022-08-19T08:19:53;98116.06;;;24.04;61.81
28267;BME280;15525;45.568;5.448;2022-08-19T08:22:20;98108.69;;;24.23;61.62
28267;BME280;15525;45.568;5.448;2022-08-19T08:27:36;98122.59;;;24.34;61.27
28267;BME280;15525;45.568;5.448;2022-08-19T08:30:03;98113.38;;;24.23;61.40
28267;BME280;15525;45.568;5.448;2022-08-19T08:32:30;98124.75;;;24.25;61.51
28267;BME280;15525;45.568;5.448;2022-08-19T08:34:56;98119.84;;;23.99;61.90
28267;BME280;15525;45.568;5.448;2022-08-19T08:37:21;98134.41;;;24.03;61.90
28267;BME280;15525;45.568;5.448;2022-08-19T08:39:47;98140.41;;;24.09;61.74
28267;BME280;15525;45.568;5.448;2022-08-19T08:42:30;98141.44;;;24.20;61.50
28267;BME280;15525;45.568;5.448;2022-08-19T08:45:03;98144.59;;;24.22;61.43
28267;BME280;15525;45.568;5.448;2022-08-19T08:47:33;98144.31;;;24.42;60.90
28267;BME280;15525;45.568;5.448;2022-08-19T08:50:05;98137.75;;;24.62;60.56
28267;BME280;15525;45.568;5.448;2022-08-19T08:55:53;98139.81;;;24.65;60.67
28267;BME280;15525;45.568;5.448;2022-08-19T08:59:31;98157.47;;;24.87;60.24
28267;BME280;15525;45.568;5.448;2022-08-19T09:01:49;98157.97;;;24.92;59.58
28267;BME280;15525;45.568;5.448;2022-08-19T09:04:14;98161.22;;;24.79;60.52
28267;BME280;15525;45.568;5.448;2022-08-19T09:09:36;98163.53;;;24.77;60.14
28267;BME280;15525;45.568;5.448;2022-08-19T09:17:10;98160.44;;;24.63;60.28
28267;BME280;15525;45.568;5.448;2022-08-19T09:19:52;98153.88;;;24.83;60.11
28267;BME280;15525;45.568;5.448;2022-08-19T09:22:18;98162.69;;;25.11;59.47
28267;BME280;15525;45.568;5.448;2022-08-19T09:24:48;98159.78;;;25.04;59.17
28267;BME280;15525;45.568;5.448;2022-08-19T09:27:13;98166.72;;;25.55;58.39
28267;BME280;15525;45.568;5.448;2022-08-19T09:29:39;98152.22;;;25.77;57.30
28267;BME280;15525;45.568;5.448;2022-08-19T09:32:04;98155.75;;;25.36;58.76
28267;BME280;15525;45.568;5.448;2022-08-19T09:34:31;98163.25;;;25.39;58.58
28267;BME280;15525;45.568;5.448;2022-08-19T09:36:57;98169.19;;;25.82;57.85
28267;BME280;15525;45.568;5.448;2022-08-19T09:39:24;98153.47;;;26.02;57.43
28267;BME280;15525;45.568;5.448;2022-08-19T09:41:49;98169.25;;;26.31;56.54
28267;BME280;15525;45.568;5.448;2022-08-19T09:44:15;98163.88;;;25.51;57.91
28267;BME280;15525;45.568;5.448;2022-08-19T09:46:41;98163.72;;;25.63;58.07
28267;BME280;15525;45.568;5.448;2022-08-19T09:49:06;98145.25;;;25.60;57.55
28267;BME280;15525;45.568;5.448;2022-08-19T09:51:33;98170.81;;;26.32;56.15
28267;BME280;15525;45.568;5.448;2022-08-19T09:54:00;98164.28;;;26.40;55.98
28267;BME280;15525;45.568;5.448;2022-08-19T09:56:27;98165.06;;;26.14;56.18
28267;BME280;15525;45.568;5.448;2022-08-19T09:58:52;98166.03;;;26.03;56.79
28267;BME280;15525;45.568;5.448;2022-08-19T10:01:24;98171.16;;;25.63;57.60
28267;BME280;15525;45.568;5.448;2022-08-19T10:03:51;98166.31;;;25.34;58.27
28267;BME280;15525;45.568;5.448;2022-08-19T10:06:18;98152.31;;;25.39;57.99
28267;BME280;15525;45.568;5.448;2022-08-19T10:08:45;98168.44;;;25.44;57.68
28267;BME280;15525;45.568;5.448;2022-08-19T10:11:11;98167.50;;;25.17;58.37
28267;BME280;15525;45.568;5.448;2022-08-19T10:13:39;98173.69;;;25.14;58.64
28267;BME280;15525;45.568;5.448;2022-08-19T10:16:08;98176.28;;;26.06;57.03
28267;BME280;15525;45.568;5.448;2022-08-19T10:18:34;98157.00;;;27.06;54.65
28267;BME280;15525;45.568;5.448;2022-08-19T10:21:19;98163.16;;;27.59;53.48
28267;BME280;15525;45.568;5.448;2022-08-19T10:23:47;98162.28;;;28.31;51.70
28267;BME280;15525;45.568;5.448;2022-08-19T10:26:19;98159.47;;;27.81;52.42
28267;BME280;15525;45.568;5.448;2022-08-19T10:28:45;98175.09;;;27.37;53.60
28267;BME280;15525;45.568;5.448;2022-08-19T10:31:18;98174.28;;;27.33;53.43
28267;BME280;15525;45.568;5.448;2022-08-19T10:33:45;98165.69;;;27.08;53.22
28267;BME280;15525;45.568;5.448;2022-08-19T10:36:17;98173.94;;;27.38;53.05
28267;BME280;15525;45.568;5.448;2022-08-19T10:38:44;98174.41;;;27.80;51.92
28267;BME280;15525;45.568;5.448;2022-08-19T10:41:19;98167.22;;;28.08;50.16
28267;BME280;15525;45.568;5.448;2022-08-19T10:43:45;98166.75;;;28.47;50.35
28267;BME280;15525;45.568;5.448;2022-08-19T10:46:15;98170.19;;;28.36;49.90
28267;BME280;15525;45.568;5.448;2022-08-19T10:48:41;98178.53;;;27.63;51.22
28267;BME280;15525;45.568;5.448;2022-08-19T10:51:08;98180.06;;;27.28;52.60
28267;BME280;15525;45.568;5.448;2022-08-19T10:53:54;98192.50;;;26.37;54.68
28267;BME280;15525;45.568;5.448;2022-08-19T10:56:21;98183.69;;;25.83;56.05
28267;BME280;15525;45.568;5.448;2022-08-19T10:59:04;98184.44;;;26.02;56.01
28267;BME280;15525;45.568;5.448;2022-08-19T11:01:31;98198.41;;;26.39;55.09
28267;BME280;15525;45.568;5.448;2022-08-19T11:04:00;98190.13;;;26.13;55.74
28267;BME280;15525;45.568;5.448;2022-08-19T11:06:26;98203.44;;;26.11;55.63
28267;BME280;15525;45.568;5.448;2022-08-19T11:08:53;98200.59;;;27.34;53.44
28267;BME280;15525;45.568;5.448;2022-08-19T11:11:20;98201.78;;;27.69;52.13
28267;BME280;15525;45.568;5.448;2022-08-19T11:13:47;98193.63;;;27.43;52.54
28267;BME280;15525;45.568;5.448;2022-08-19T11:16:15;98193.38;;;28.32;51.26
28267;BME280;15525;45.568;5.448;2022-08-19T11:18:46;98208.97;;;27.77;51.71
28267;BME280;15525;45.568;5.448;2022-08-19T11:21:25;98191.31;;;27.45;52.24
28267;BME280;15525;45.568;5.448;2022-08-19T11:23:55;98199.53;;;27.78;51.77
28267;BME280;15525;45.568;5.448;2022-08-19T11:26:21;98193.03;;;26.98;53.28
28267;BME280;15525;45.568;5.448;2022-08-19T11:28:48;98206.75;;;26.68;53.64
28267;BME280;15525;45.568;5.448;2022-08-19T11:31:18;98206.56;;;26.84;53.98
28267;BME280;15525;45.568;5.448;2022-08-19T11:33:44;98203.53;;;27.48;52.66
28267;BME280;15525;45.568;5.448;2022-08-19T11:36:12;98216.03;;;27.78;52.09
28267;BME280;15525;45.568;5.448;2022-08-19T11:38:37;98220.09;;;27.22;52.62
28267;BME280;15525;45.568;5.448;2022-08-19T11:41:05;98216.28;;;26.78;54.09
28267;BME280;15525;45.568;5.448;2022-08-19T11:43:32;98221.13;;;27.14;53.21
28267;BME280;15525;45.568;5.448;2022-08-19T11:45:58;98215.56;;;26.32;54.32
28267;BME280;15525;45.568;5.448;2022-08-19T11:48:24;98224.78;;;25.98;55.60
28267;BME280;15525;45.568;5.448;2022-08-19T11:50:52;98222.13;;;25.64;56.22
28267;BME280;15525;45.568;5.448;2022-08-19T11:53:20;98232.41;;;25.70;56.19
28267;BME280;15525;45.568;5.448;2022-08-19T11:55:47;98230.22;;;25.57;56.66
28267;BME280;15525;45.568;5.448;2022-08-19T11:58:14;98237.34;;;25.80;56.33
28267;BME280;15525;45.568;5.448;2022-08-19T12:00:41;98238.28;;;25.50;56.74
28267;BME280;15525;45.568;5.448;2022-08-19T12:03:07;98230.44;;;25.90;56.16
28267;BME280;15525;45.568;5.448;2022-08-19T12:05:32;98225.84;;;25.94;56.21
28267;BME280;15525;45.568;5.448;2022-08-19T12:07:57;98226.56;;;25.72;56.00
28267;BME280;15525;45.568;5.448;2022-08-19T12:10:25;98231.47;;;25.25;57.22
28267;BME280;15525;45.568;5.448;2022-08-19T12:12:50;98224.22;;;25.32;57.27
28267;BME280;15525;45.568;5.448;2022-08-19T12:15:16;98234.66;;;25.27;57.21
28267;BME280;15525;45.568;5.448;2022-08-19T12:17:42;98239.38;;;24.92;57.73
28267;BME280;15525;45.568;5.448;2022-08-19T12:20:09;98239.44;;;25.30;57.08
28267;BME280;15525;45.568;5.448;2022-08-19T12:22:36;98233.69;;;25.35;56.33
28267;BME280;15525;45.568;5.448;2022-08-19T12:25:04;98239.75;;;24.75;57.30
28267;BME280;15525;45.568;5.448;2022-08-19T12:27:30;98237.53;;;25.15;56.87
28267;BME280;15525;45.568;5.448;2022-08-19T12:29:55;98235.91;;;24.95;56.67
28267;BME280;15525;45.568;5.448;2022-08-19T12:32:21;98236.25;;;24.43;57.81
28267;BME280;15525;45.568;5.448;2022-08-19T12:34:46;98230.94;;;24.35;58.18
28267;BME280;15525;45.568;5.448;2022-08-19T12:37:12;98235.44;;;24.43;57.85
28267;BME280;15525;45.568;5.448;2022-08-19T12:39:40;98236.25;;;24.28;58.53
28267;BME280;15525;45.568;5.448;2022-08-19T12:42:07;98247.28;;;24.47;58.11
28267;BME280;15525;45.568;5.448;2022-08-19T12:44:35;98232.69;;;24.43;58.37
28267;BME280;15525;45.568;5.448;2022-08-19T12:47:00;98244.91;;;24.61;58.41
28267;BME280;15525;45.568;5.448;2022-08-19T12:49:29;98243.38;;;24.79;58.18
28267;BME280;15525;45.568;5.448;2022-08-19T12:51:55;98247.59;;;24.14;59.51
28267;BME280;15525;45.568;5.448;2022-08-19T12:54:20;98242.88;;;24.27;59.23
28267;BME280;15525;45.568;5.448;2022-08-19T12:56:46;98243.38;;;24.48;58.93
28267;BME280;15525;45.568;5.448;2022-08-19T12:59:11;98239.41;;;24.45;58.83
28267;BME280;15525;45.568;5.448;2022-08-19T13:01:37;98240.03;;;24.70;58.30
28267;BME280;15525;45.568;5.448;2022-08-19T13:04:03;98247.28;;;24.62;58.69
28267;BME280;15525;45.568;5.448;2022-08-19T13:06:28;98240.97;;;24.93;57.79
28267;BME280;15525;45.568;5.448;2022-08-19T13:08:54;98241.44;;;25.14;57.37
28267;BME280;15525;45.568;5.448;2022-08-19T13:11:20;98237.72;;;25.41;56.91
28267;BME280;15525;45.568;5.448;2022-08-19T13:13:49;98228.31;;;25.80;56.60
28267;BME280;15525;45.568;5.448;2022-08-19T13:16:16;98234.75;;;25.68;56.77
28267;BME280;15525;45.568;5.448;2022-08-19T13:18:46;98230.63;;;26.19;55.53